Time;durP1;ratioP1;P1;durP2;ratioP2;P2;SDS_P1;SDS_P2;PMS_P1;PMS_P2;Temp;Humidity;BMP_temperature;BMP_pressure;BME280_temperature;BME280_humidity;BME280_pressure;Samples;Min_cycle;Max_cycle;Signal;HPM_P1;HPM_P2
2022/11/08 00:03:11;;;;;;;1.90;1.77;;;;;;;10.97;68.84;95721.63;5034828;28;20208;-83
2022/11/08 00:13:57;;;;;;;1.70;1.60;;;;;;;10.89;69.20;95710.59;5034064;28;20209;-85
2022/11/08 00:16:24;;;;;;;2.27;1.40;;;;;;;10.86;69.22;95713.53;5028217;28;20202;-83
2022/11/08 00:18:50;;;;;;;2.17;1.60;;;;;;;10.86;69.36;95706.59;5034096;28;20714;-83
2022/11/08 00:21:18;;;;;;;2.80;1.97;;;;;;;10.83;69.03;95704.38;5034653;28;20194;-83
2022/11/08 00:23:44;;;;;;;2.87;1.70;;;;;;;10.87;69.03;95702.25;5033865;28;20204;-84
2022/11/08 00:26:13;;;;;;;1.67;1.57;;;;;;;10.89;68.80;95702.88;5034232;28;20576;-83
2022/11/08 00:28:39;;;;;;;1.80;1.70;;;;;;;10.88;68.48;95701.28;5033193;28;20222;-85
2022/11/08 00:31:06;;;;;;;2.50;1.87;;;;;;;10.85;68.98;95706.78;5033702;28;20230;-86
2022/11/08 00:33:33;;;;;;;1.70;1.57;;;;;;;10.82;69.00;95701.97;5033519;28;20202;-84
2022/11/08 00:35:59;;;;;;;2.00;1.80;;;;;;;10.73;69.15;95699.47;5027162;28;20213;-84
2022/11/08 00:38:27;;;;;;;2.83;1.90;;;;;;;10.73;69.01;95701.25;5034227;28;20209;-84
2022/11/08 00:40:54;;;;;;;1.90;1.60;;;;;;;10.69;69.30;95700.00;5034301;28;20206;-85
2022/11/08 00:43:21;;;;;;;3.43;1.93;;;;;;;10.77;68.92;95694.78;5034973;28;20193;-86
2022/11/08 00:45:47;;;;;;;2.17;1.80;;;;;;;10.82;68.90;95700.19;5033960;28;20202;-83
2022/11/08 00:48:17;;;;;;;2.50;1.70;;;;;;;10.77;69.11;95691.41;5033949;28;20194;-84
2022/11/08 00:50:43;;;;;;;2.03;1.83;;;;;;;10.78;68.80;95691.19;5033065;28;20240;-83
2022/11/08 00:53:10;;;;;;;1.90;1.70;;;;;;;10.77;68.58;95686.25;5034552;28;20333;-83
2022/11/08 00:55:37;;;;;;;2.77;1.80;;;;;;;10.77;68.64;95681.91;5033450;28;20225;-83
2022/11/08 00:58:04;;;;;;;2.47;1.43;;;;;;;10.79;68.45;95686.84;5033474;28;20202;-83
2022/11/08 01:00:30;;;;;;;2.20;1.97;;;;;;;10.81;68.27;95674.59;5033950;28;20206;-83
2022/11/08 01:05:37;;;;;;;2.03;1.70;;;;;;;10.77;68.61;95676.75;5032044;28;20484;-86
2022/11/08 01:08:04;;;;;;;2.13;1.80;;;;;;;10.77;68.29;95661.31;5033560;28;20209;-83
2022/11/08 01:10:31;;;;;;;2.00;1.70;;;;;;;10.78;68.22;95662.06;5033192;28;20236;-85
2022/11/08 01:13:01;;;;;;;1.77;1.67;;;;;;;10.80;68.19;95660.94;5032629;28;20209;-84
2022/11/08 01:15:27;;;;;;;2.10;1.90;;;;;;;10.82;67.68;95663.31;5028410;28;20197;-84
2022/11/08 01:17:54;;;;;;;2.00;1.80;;;;;;;10.80;67.93;95649.81;5033569;28;20209;-84
2022/11/08 01:20:20;;;;;;;1.97;1.80;;;;;;;10.73;67.90;95650.53;5033754;28;20217;-83
2022/11/08 01:22:47;;;;;;;3.53;2.20;;;;;;;10.67;67.89;95648.66;5034292;28;20218;-83
2022/11/08 01:25:13;;;;;;;2.20;1.90;;;;;;;10.68;67.94;95650.25;5034525;28;20194;-84
2022/11/08 01:27:40;;;;;;;3.07;2.00;;;;;;;10.63;68.20;95646.59;5033546;28;20209;-85
2022/11/08 01:30:09;;;;;;;3.80;1.90;;;;;;;10.65;68.09;95648.03;5026821;28;20234;-84
2022/11/08 01:32:36;;;;;;;2.33;2.13;;;;;;;10.54;68.37;95645.09;5032968;28;20198;-83
2022/11/08 01:35:02;;;;;;;2.10;1.90;;;;;;;10.52;68.53;95654.75;5033664;28;20204;-83
2022/11/08 01:37:29;;;;;;;2.60;1.93;;;;;;;10.45;68.42;95644.34;5032698;28;20190;-83
2022/11/08 01:39:55;;;;;;;2.67;2.00;;;;;;;10.45;68.80;95640.97;5033122;28;20704;-83
2022/11/08 01:42:27;;;;;;;3.33;2.13;;;;;;;10.41;68.60;95637.94;5033060;28;20193;-84
2022/11/08 01:44:57;;;;;;;2.40;2.07;;;;;;;10.43;68.52;95637.78;5033506;28;20236;-83
2022/11/08 01:47:25;;;;;;;2.33;2.13;;;;;;;10.39;68.49;95637.34;5033491;28;20205;-83
2022/11/08 01:49:54;;;;;;;2.30;2.10;;;;;;;10.37;68.79;95637.53;5032941;28;20217;-86
2022/11/08 01:52:32;;;;;;;2.37;2.10;;;;;;;10.37;68.57;95631.56;5033000;28;20261;-85
2022/11/08 01:55:09;;;;;;;1.90;1.80;;;;;;;10.32;68.80;95632.09;5032927;28;20194;-84
2022/11/08 01:57:43;;;;;;;2.87;2.03;;;;;;;10.34;68.63;95625.00;5028652;28;20642;-84
2022/11/08 02:00:12;;;;;;;2.10;1.90;;;;;;;10.20;69.03;95624.97;5032645;28;20218;-84
2022/11/08 02:02:43;;;;;;;2.37;1.90;;;;;;;10.21;69.21;95629.09;5037835;28;20676;-85
2022/11/08 02:05:24;;;;;;;2.43;1.90;;;;;;;10.13;69.36;95619.66;5037990;28;20202;-83
2022/11/08 02:07:53;;;;;;;1.97;1.83;;;;;;;10.18;69.03;95621.72;5038146;28;20224;-83
2022/11/08 02:10:23;;;;;;;2.00;1.80;;;;;;;10.19;68.66;95616.44;5036922;28;20227;-84
2022/11/08 02:12:51;;;;;;;2.13;1.73;;;;;;;10.17;68.69;95609.84;5037222;28;20202;-83
2022/11/08 02:15:20;;;;;;;3.10;1.80;;;;;;;10.22;68.57;95603.19;5035902;28;20196;-84
2022/11/08 02:17:48;;;;;;;2.57;1.80;;;;;;;10.13;69.07;95598.28;5038320;28;20202;-84
2022/11/08 02:20:15;;;;;;;1.97;1.80;;;;;;;10.12;69.01;95594.09;5037934;28;20236;-83
2022/11/08 02:22:48;;;;;;;2.67;2.00;;;;;;;10.06;69.03;95593.00;5037728;28;20692;-84
2022/11/08 02:25:16;;;;;;;2.40;2.10;;;;;;;10.08;69.08;95593.66;5038789;28;20186;-85
2022/11/08 02:27:43;;;;;;;2.17;1.70;;;;;;;10.01;68.92;95593.53;5037329;28;20201;-84
2022/11/08 02:30:10;;;;;;;2.57;2.20;;;;;;;10.02;69.29;95596.91;5036148;28;20230;-83
2022/11/08 02:32:38;;;;;;;2.10;1.90;;;;;;;9.93;69.50;95591.03;5037432;28;20194;-86
2022/11/08 02:35:09;;;;;;;2.17;1.97;;;;;;;9.95;69.77;95590.88;5037515;28;20213;-83
2022/11/08 02:37:35;;;;;;;2.53;2.20;;;;;;;9.91;70.08;95590.41;5034532;28;20194;-84
2022/11/08 02:40:02;;;;;;;2.23;2.00;;;;;;;9.96;69.53;95598.41;5037501;28;20229;-82
2022/11/08 02:42:30;;;;;;;2.20;2.00;;;;;;;9.88;69.90;95592.50;5036540;28;20194;-84
2022/11/08 02:44:56;;;;;;;3.17;2.93;;;;;;;9.82;70.08;95590.63;5034572;28;20214;-83
2022/11/08 02:47:23;;;;;;;29.23;23.37;;;;;;;9.78;70.00;95581.66;5037791;28;20190;-83
2022/11/08 02:49:50;;;;;;;5.37;3.40;;;;;;;9.76;69.96;95586.19;5037277;28;20218;-83
2022/11/08 02:52:16;;;;;;;3.23;2.43;;;;;;;9.70;69.98;95587.66;5037596;28;20677;-83
2022/11/08 02:54:43;;;;;;;2.60;2.40;;;;;;;9.46;70.42;95586.03;5037924;28;20202;-83
2022/11/08 02:57:09;;;;;;;2.80;2.03;;;;;;;9.48;70.55;95581.50;5037453;28;20194;-84
2022/11/08 02:59:37;;;;;;;2.47;2.27;;;;;;;9.53;70.33;95584.38;5037504;28;20220;-85
2022/11/08 03:02:03;;;;;;;2.97;2.30;;;;;;;9.57;70.32;95577.13;5036838;28;20195;-84
2022/11/08 03:04:30;;;;;;;2.40;2.20;;;;;;;9.42;70.64;95578.84;5037152;28;20204;-84
2022/11/08 03:06:56;;;;;;;2.20;2.00;;;;;;;9.34;70.65;95570.19;5036349;28;20206;-85
2022/11/08 03:09:23;;;;;;;2.30;2.10;;;;;;;9.09;71.70;95571.28;5036642;28;20218;-84
2022/11/08 03:11:49;;;;;;;2.60;2.40;;;;;;;8.95;72.09;95565.09;5029482;28;20300;-84
2022/11/08 03:14:16;;;;;;;2.63;2.00;;;;;;;9.03;72.22;95566.03;5036599;28;20198;-84
2022/11/08 03:16:43;;;;;;;2.37;2.17;;;;;;;9.12;71.78;95573.53;5037846;28;20198;-84
2022/11/08 03:19:10;;;;;;;2.70;2.10;;;;;;;9.22;71.29;95570.75;5033576;28;20214;-85
2022/11/08 03:21:39;;;;;;;2.60;2.40;;;;;;;9.30;71.13;95565.56;5035045;28;20198;-84
2022/11/08 03:24:07;;;;;;;3.27;1.97;;;;;;;9.27;70.84;95561.56;5034730;28;20198;-84
2022/11/08 03:26:33;;;;;;;2.47;2.10;;;;;;;9.21;70.95;95575.09;5035147;28;20206;-83
2022/11/08 03:29:00;;;;;;;2.47;1.90;;;;;;;9.25;71.21;95572.97;5035050;28;20711;-83
2022/11/08 03:31:26;;;;;;;2.93;2.07;;;;;;;9.26;71.05;95572.00;5035458;28;20228;-84
2022/11/08 03:33:54;;;;;;;4.83;2.23;;;;;;;9.20;70.74;95572.69;5035651;28;20202;-84
2022/11/08 03:36:20;;;;;;;2.20;1.87;;;;;;;9.11;70.91;95573.69;5039180;28;20216;-83
2022/11/08 03:38:47;;;;;;;2.10;1.87;;;;;;;8.66;72.51;95570.78;5036079;28;20218;-84
2022/11/08 03:41:13;;;;;;;1.80;1.70;;;;;;;8.79;72.39;95572.84;5036366;28;20268;-84
2022/11/08 03:43:40;;;;;;;2.30;2.10;;;;;;;8.92;72.02;95572.31;5037407;28;20225;-83
2022/11/08 03:46:06;;;;;;;2.00;1.80;;;;;;;8.85;71.98;95567.03;5021790;28;20591;-83
2022/11/08 03:48:33;;;;;;;2.90;2.20;;;;;;;8.62;72.97;95566.97;5028078;28;20198;-84
2022/11/08 03:51:00;;;;;;;2.83;2.10;;;;;;;8.66;72.37;95563.09;5036663;28;20225;-83
2022/11/08 03:53:27;;;;;;;2.63;2.00;;;;;;;8.74;72.34;95557.13;5029380;28;20198;-84
2022/11/08 03:55:53;;;;;;;2.23;1.80;;;;;;;8.62;72.66;95559.28;5036007;28;20569;-82
2022/11/08 03:58:20;;;;;;;2.43;1.77;;;;;;;8.44;73.26;95556.09;5033336;28;20673;-83
2022/11/08 04:00:46;;;;;;;2.07;1.80;;;;;;;8.47;73.16;95560.88;5035208;28;20210;-83
2022/11/08 04:03:13;;;;;;;2.37;1.77;;;;;;;8.56;72.99;95559.13;5035629;28;20221;-82
2022/11/08 04:05:39;;;;;;;3.27;2.10;;;;;;;8.63;73.23;95549.81;5035118;28;20202;-84
2022/11/08 04:08:07;;;;;;;2.40;2.20;;;;;;;8.66;72.72;95550.25;5034941;28;20566;-83
2022/11/08 04:10:34;;;;;;;3.53;2.10;;;;;;;8.56;72.74;95546.28;5035120;28;20218;-84
2022/11/08 04:15:47;;;;;;;2.20;2.00;;;;;;;8.53;73.63;95549.19;5032188;28;20273;-84
2022/11/08 04:21:18;;;;;;;2.10;1.90;;;;;;;8.78;72.73;95544.78;5025782;28;20209;-83
2022/11/08 04:23:47;;;;;;;2.33;2.13;;;;;;;8.75;72.27;95539.97;5033318;28;20197;-81
2022/11/08 04:26:17;;;;;;;2.73;2.20;;;;;;;8.75;72.01;95547.66;5035272;28;20203;-83
2022/11/08 04:28:44;;;;;;;2.30;2.10;;;;;;;8.62;72.84;95540.50;5034117;28;20264;-83
2022/11/08 04:31:14;;;;;;;2.27;2.10;;;;;;;8.71;72.58;95548.97;5035115;28;20222;-85
2022/11/08 04:33:41;;;;;;;2.10;1.90;;;;;;;8.79;71.97;95543.81;5034550;28;20682;-83
2022/11/08 04:36:09;;;;;;;3.37;2.20;;;;;;;8.79;71.98;95536.13;5035017;28;20213;-83
2022/11/08 04:38:36;;;;;;;2.87;2.20;;;;;;;8.62;72.03;95538.75;5034626;28;20245;-83
2022/11/08 04:41:05;;;;;;;4.33;2.03;;;;;;;8.56;72.18;95526.56;5035133;28;20202;-84
2022/11/08 04:43:32;;;;;;;2.63;2.10;;;;;;;8.61;72.30;95523.50;5028375;28;20205;-83
2022/11/08 04:46:00;;;;;;;2.43;2.20;;;;;;;8.61;71.86;95521.75;5034712;28;20598;-83
2022/11/08 04:48:27;;;;;;;3.13;2.00;;;;;;;8.56;71.64;95525.75;5034871;28;20201;-82
2022/11/08 04:50:54;;;;;;;2.53;2.23;;;;;;;8.55;71.71;95527.53;5034572;28;20198;-83
2022/11/08 04:53:21;;;;;;;2.20;2.00;;;;;;;8.56;72.11;95536.03;5032869;28;20225;-83
2022/11/08 04:55:47;;;;;;;5.10;2.40;;;;;;;8.52;71.93;95515.03;5034767;28;20198;-84
2022/11/08 04:58:15;;;;;;;2.53;2.20;;;;;;;8.47;72.08;95519.03;5034217;28;20553;-82
2022/11/08 05:00:41;;;;;;;3.30;2.30;;;;;;;8.41;72.06;95523.09;5035176;28;20195;-83
2022/11/08 05:03:08;;;;;;;2.60;2.33;;;;;;;8.34;72.33;95523.88;5035787;28;20198;-84
2022/11/08 05:05:34;;;;;;;2.93;2.43;;;;;;;8.27;72.06;95528.88;5034522;28;20204;-84
2022/11/08 05:08:00;;;;;;;2.43;2.23;;;;;;;8.28;71.95;95515.84;5034744;28;20202;-84
2022/11/08 05:10:27;;;;;;;2.47;2.20;;;;;;;8.29;71.82;95512.31;5035564;28;20210;-83
2022/11/08 05:12:56;;;;;;;2.20;2.00;;;;;;;8.21;72.11;95506.41;5034748;28;20248;-82
2022/11/08 05:15:24;;;;;;;2.50;2.30;;;;;;;8.15;72.63;95509.63;5024855;28;20206;-83
2022/11/08 05:17:50;;;;;;;2.10;1.83;;;;;;;8.23;72.66;95512.19;5026215;28;20198;-83
2022/11/08 05:25:45;;;;;;;4.40;2.20;;;;;;;7.90;73.12;95506.28;5034622;28;20217;-86
2022/11/08 05:28:12;;;;;;;2.53;2.27;;;;;;;8.01;72.80;95515.44;5033714;28;20256;-83
2022/11/08 05:30:40;;;;;;;2.30;2.10;;;;;;;8.10;73.04;95507.53;5032873;28;20589;-84
2022/11/08 05:33:06;;;;;;;4.57;2.80;;;;;;;8.10;72.71;95504.19;5029214;28;20234;-82
2022/11/08 05:35:33;;;;;;;2.80;2.50;;;;;;;8.19;72.77;95505.78;5030065;28;20200;-83
2022/11/08 05:38:00;;;;;;;3.10;2.57;;;;;;;8.22;72.55;95501.13;5038839;28;20197;-83
2022/11/08 05:40:26;;;;;;;3.47;2.30;;;;;;;8.21;72.56;95502.09;5024185;28;20226;-85
2022/11/08 05:42:53;;;;;;;2.60;2.40;;;;;;;8.25;72.17;95498.25;5018247;28;20195;-83
2022/11/08 05:45:20;;;;;;;2.93;2.60;;;;;;;8.31;71.99;95495.00;5034849;28;20557;-83
2022/11/08 05:47:48;;;;;;;2.50;2.30;;;;;;;8.23;72.10;95496.81;5031825;28;20202;-81
2022/11/08 05:50:15;;;;;;;3.07;2.47;;;;;;;8.30;72.16;95493.41;5038030;28;20215;-84
2022/11/08 05:52:41;;;;;;;2.60;2.40;;;;;;;8.31;71.70;95492.44;5031836;28;20223;-83
2022/11/08 05:55:08;;;;;;;6.57;2.40;;;;;;;8.32;72.10;95496.63;5019067;28;20206;-84
2022/11/08 05:57:35;;;;;;;2.63;2.43;;;;;;;8.21;71.63;95496.97;5030427;28;20705;-83
2022/11/08 06:00:02;;;;;;;3.00;2.70;;;;;;;8.18;71.87;95502.41;5035222;28;20221;-82
2022/11/08 06:02:31;;;;;;;3.57;2.43;;;;;;;8.01;72.39;95495.72;5038015;28;20636;-82
2022/11/08 06:04:59;;;;;;;3.23;2.57;;;;;;;7.98;72.52;95503.72;5036652;28;20213;-84
2022/11/08 06:07:26;;;;;;;2.63;2.43;;;;;;;7.96;72.30;95498.75;5036383;28;20496;-81
2022/11/08 06:09:52;;;;;;;4.50;2.97;;;;;;;7.72;73.11;95495.41;5037618;28;20226;-84
2022/11/08 06:12:19;;;;;;;3.50;2.73;;;;;;;7.79;73.02;95498.94;5031593;28;20224;-83
2022/11/08 06:14:46;;;;;;;4.53;2.40;;;;;;;7.83;72.96;95498.47;5026746;28;20209;-83
2022/11/08 06:17:12;;;;;;;2.60;2.40;;;;;;;7.91;72.87;95502.75;5036572;28;20649;-84
2022/11/08 06:19:39;;;;;;;4.37;2.97;;;;;;;8.03;72.34;95500.69;5036490;28;20230;-85
2022/11/08 06:22:07;;;;;;;2.97;2.47;;;;;;;8.04;72.67;95505.66;5036628;28;20205;-82
2022/11/08 06:24:34;;;;;;;4.77;2.87;;;;;;;8.04;72.38;95500.53;5037346;28;20202;-87
2022/11/08 06:27:00;;;;;;;3.13;2.73;;;;;;;8.13;72.09;95506.44;5055971;28;20208;-84
2022/11/08 06:29:26;;;;;;;2.73;2.23;;;;;;;8.21;71.66;95511.56;5056751;28;20240;-83
2022/11/08 06:31:53;;;;;;;4.30;3.37;;;;;;;8.12;71.55;95504.81;5057260;28;20228;-82
2022/11/08 06:34:19;;;;;;;4.37;2.83;;;;;;;7.98;72.02;95508.84;5057475;28;20259;-83
2022/11/08 06:36:46;;;;;;;4.60;2.50;;;;;;;7.98;72.14;95511.41;5049760;28;20225;-81
2022/11/08 06:39:14;;;;;;;3.10;2.63;;;;;;;8.03;72.34;95514.31;5037973;28;20218;-83
2022/11/08 06:41:40;;;;;;;3.40;3.10;;;;;;;8.29;71.87;95507.19;5036640;28;20195;-82
2022/11/08 06:44:07;;;;;;;5.67;3.10;;;;;;;8.55;70.94;95517.25;5037432;28;20215;-83
2022/11/08 06:46:33;;;;;;;3.90;3.03;;;;;;;8.89;70.36;95508.47;5036578;28;20202;-84
2022/11/08 06:49:00;;;;;;;4.80;3.00;;;;;;;9.22;68.55;95509.09;5037319;28;20222;-84
2022/11/08 06:51:26;;;;;;;3.43;2.93;;;;;;;9.68;67.84;95520.19;5037140;28;20741;-83
2022/11/08 06:53:53;;;;;;;6.53;2.77;;;;;;;10.17;66.68;95520.59;5036720;28;20210;-83
2022/11/08 06:56:20;;;;;;;2.77;2.43;;;;;;;10.46;64.11;95517.25;5038192;28;20202;-84
2022/11/08 06:58:47;;;;;;;3.70;3.00;;;;;;;10.84;63.58;95522.31;5037409;28;20222;-86
2022/11/08 07:01:17;;;;;;;4.60;2.70;;;;;;;11.23;62.51;95512.44;5037563;28;20206;-83
2022/11/08 07:03:44;;;;;;;4.53;2.80;;;;;;;11.49;61.21;95506.78;5037145;28;20273;-83
2022/11/08 07:06:10;;;;;;;4.40;2.80;;;;;;;11.63;61.07;95507.69;5037552;28;20198;-82
2022/11/08 07:08:37;;;;;;;3.77;3.00;;;;;;;11.82;60.79;95511.47;5029278;28;20202;-84
2022/11/08 07:11:04;;;;;;;6.27;2.97;;;;;;;11.85;60.17;95518.84;5037017;28;20593;-83
2022/11/08 07:13:32;;;;;;;5.43;3.00;;;;;;;11.88;60.17;95506.38;5036217;28;20731;-82
2022/11/08 07:15:59;;;;;;;5.70;3.20;;;;;;;11.77;60.54;95509.44;5037450;28;20725;-83
2022/11/08 07:18:31;;;;;;;3.80;3.20;;;;;;;11.73;60.85;95515.94;5037068;28;20205;-83
2022/11/08 07:20:59;;;;;;;4.50;2.90;;;;;;;11.67;61.01;95508.94;5035428;28;20202;-84
2022/11/08 07:23:26;;;;;;;4.97;2.73;;;;;;;11.71;60.92;95507.59;5036083;28;20216;-83
2022/11/08 07:25:52;;;;;;;3.10;2.67;;;;;;;11.72;61.39;95512.56;5034556;28;20202;-83
2022/11/08 07:28:19;;;;;;;8.00;2.87;;;;;;;11.70;61.86;95513.72;5033483;28;20210;-84
2022/11/08 07:30:48;;;;;;;5.07;3.13;;;;;;;11.75;62.13;95512.16;5034095;28;20208;-83
2022/11/08 07:33:15;;;;;;;5.60;3.27;;;;;;;11.89;61.57;95518.28;5033618;28;20260;-83
2022/11/08 07:35:45;;;;;;;3.70;3.00;;;;;;;11.98;61.42;95514.56;5025855;28;20199;-84
2022/11/08 07:38:11;;;;;;;4.67;2.73;;;;;;;11.95;61.30;95509.78;5023583;28;20203;-83
2022/11/08 07:40:38;;;;;;;4.70;2.23;;;;;;;11.86;60.64;95500.59;5014370;28;20226;-83
2022/11/08 07:43:04;;;;;;;4.30;2.80;;;;;;;11.94;61.69;95517.69;5014772;28;20565;-84
2022/11/08 07:45:31;;;;;;;4.20;2.47;;;;;;;12.05;60.25;95512.06;5014529;28;20206;-83
2022/11/08 07:47:59;;;;;;;3.17;2.30;;;;;;;12.31;59.54;95512.25;5023602;28;20214;-83
2022/11/08 07:50:26;;;;;;;4.73;2.47;;;;;;;12.56;58.80;95504.84;5033743;28;20705;-85
2022/11/08 07:52:53;;;;;;;3.40;2.80;;;;;;;12.76;57.61;95499.75;5033662;28;20261;-83
2022/11/08 07:55:19;;;;;;;5.97;4.13;;;;;;;12.66;56.94;95494.16;5034806;28;20206;-83
2022/11/08 07:57:48;;;;;;;4.77;2.63;;;;;;;12.68;56.83;95489.63;5033359;28;20198;-83
2022/11/08 08:00:16;;;;;;;4.00;2.40;;;;;;;12.92;56.02;95491.69;5033317;28;20257;-84
2022/11/08 08:02:43;;;;;;;4.27;2.37;;;;;;;13.05;54.83;95491.75;5034208;28;20202;-84
2022/11/08 08:05:11;;;;;;;6.47;2.70;;;;;;;13.21;54.41;95482.09;5033410;28;20205;-84
2022/11/08 08:07:37;;;;;;;2.53;2.20;;;;;;;13.18;53.98;95477.28;5032778;28;20210;-85
2022/11/08 08:10:05;;;;;;;5.33;2.80;;;;;;;13.26;54.59;95480.50;5022253;28;20229;-84
2022/11/08 08:12:31;;;;;;;3.60;2.60;;;;;;;13.13;54.34;95476.06;5036034;28;20252;-83
2022/11/08 08:14:58;;;;;;;4.17;2.10;;;;;;;13.29;54.54;95477.50;5053227;28;20213;-84
2022/11/08 08:17:24;;;;;;;4.53;2.50;;;;;;;13.39;54.89;95482.31;5053047;28;20201;-84
2022/11/08 08:19:52;;;;;;;2.83;2.37;;;;;;;13.53;54.13;95481.34;5051855;28;20227;-83
2022/11/08 08:22:22;;;;;;;6.67;2.53;;;;;;;13.71;53.95;95476.38;5052741;28;20188;-82
2022/11/08 08:24:49;;;;;;;5.33;2.70;;;;;;;13.91;53.11;95491.13;5053998;28;20205;-84
2022/11/08 08:27:15;;;;;;;2.87;2.30;;;;;;;14.02;52.15;95482.78;5052480;28;20208;-85
2022/11/08 08:29:42;;;;;;;2.37;2.13;;;;;;;13.90;52.15;95486.94;5041678;28;20218;-83
2022/11/08 08:32:08;;;;;;;2.70;1.83;;;;;;;13.79;51.99;95491.72;5032400;28;20210;-83
2022/11/08 08:34:34;;;;;;;3.33;2.20;;;;;;;13.90;52.15;95489.53;5031799;28;20285;-86
2022/11/08 08:37:01;;;;;;;2.10;1.83;;;;;;;14.06;52.55;95492.50;5023844;28;20210;-83
2022/11/08 08:39:29;;;;;;;3.70;2.03;;;;;;;14.23;51.54;95490.31;5011813;28;20233;-84
2022/11/08 08:41:55;;;;;;;2.63;2.00;;;;;;;14.19;51.74;95489.13;5012657;28;20674;-83
2022/11/08 08:44:25;;;;;;;2.93;2.37;;;;;;;14.22;50.47;95493.91;5013270;28;20210;-84
2022/11/08 08:46:51;;;;;;;4.30;2.07;;;;;;;14.35;50.18;95485.31;5014027;28;20211;-84
2022/11/08 08:49:17;;;;;;;2.95;1.70;;;;;;;14.46;50.80;95492.50;5012149;28;20226;-85
2022/11/08 08:51:44;;;;;;;3.08;1.90;;;;;;;14.55;50.38;95483.50;5011874;28;20290;-85
2022/11/08 08:54:13;;;;;;;2.90;1.90;;;;;;;14.73;50.95;95483.66;5012137;28;20234;-85
2022/11/08 08:56:41;;;;;;;2.38;1.65;;;;;;;14.81;49.25;95472.28;5016446;28;20285;-85
2022/11/08 08:59:07;;;;;;;2.05;1.85;;;;;;;14.98;49.65;95481.19;5031690;28;20218;-83
2022/11/08 09:01:34;;;;;;;3.00;1.80;;;;;;;15.07;49.82;95481.72;5020719;28;20210;-83
2022/11/08 09:04:00;;;;;;;3.15;1.77;;;;;;;15.03;48.63;95478.75;5013134;28;20203;-84
2022/11/08 09:06:27;;;;;;;3.80;1.98;;;;;;;15.06;49.02;95483.53;5013309;28;20298;-84
2022/11/08 09:08:53;;;;;;;2.35;1.80;;;;;;;14.84;49.24;95477.03;5012866;28;20813;-83
2022/11/08 09:11:20;;;;;;;3.58;2.03;;;;;;;14.93;49.29;95480.19;5012701;28;20205;-84
2022/11/08 09:13:48;;;;;;;3.17;2.28;;;;;;;14.96;48.50;95480.59;5013888;28;20230;-84
2022/11/08 09:16:14;;;;;;;3.10;1.77;;;;;;;15.10;48.81;95479.53;5030482;28;20232;-84
2022/11/08 09:18:41;;;;;;;3.03;1.80;;;;;;;15.00;47.92;95483.56;5030163;28;20205;-83
2022/11/08 09:21:08;;;;;;;2.38;1.98;;;;;;;14.94;49.25;95482.59;5030430;28;20207;-85
2022/11/08 09:23:34;;;;;;;4.03;1.85;;;;;;;14.83;49.64;95473.63;5030955;28;20209;-84
2022/11/08 09:26:03;;;;;;;2.30;1.98;;;;;;;14.80;49.65;95475.88;5031495;28;20205;-87
2022/11/08 09:28:30;;;;;;;1.77;1.65;;;;;;;14.67;50.24;95486.25;5029423;28;20221;-84
2022/11/08 09:31:01;;;;;;;4.47;1.92;;;;;;;14.55;50.20;95483.50;5010820;28;20209;-86
2022/11/08 09:33:27;;;;;;;2.60;2.08;;;;;;;14.49;50.58;95476.53;5011444;28;20227;-84
2022/11/08 09:35:54;;;;;;;2.42;1.63;;;;;;;14.58;50.53;95482.31;5011108;28;20206;-84
2022/11/08 09:38:20;;;;;;;3.42;1.77;;;;;;;14.71;50.93;95488.25;5030250;28;20214;-84
2022/11/08 09:40:53;;;;;;;2.92;1.88;;;;;;;14.75;51.00;95484.25;5018822;28;20249;-84
2022/11/08 09:43:43;;;;;;;2.28;1.95;;;;;;;14.75;51.54;95493.81;5009923;28;20228;-85
2022/11/08 09:46:16;;;;;;;2.15;1.80;;;;;;;14.72;51.66;95496.81;5011583;28;20206;-85
2022/11/08 09:48:44;;;;;;;3.17;2.03;;;;;;;14.56;50.67;95492.88;5011007;28;20278;-84
2022/11/08 09:51:14;;;;;;;3.38;2.08;;;;;;;14.37;50.45;95488.50;5011851;28;20230;-83
2022/11/08 09:53:48;;;;;;;8.52;2.00;;;;;;;14.31;51.78;95489.31;5011455;28;20227;-85
2022/11/08 09:56:20;;;;;;;3.35;1.80;;;;;;;14.39;52.23;95489.91;5023009;28;20197;-83
2022/11/08 09:58:53;;;;;;;3.30;2.03;;;;;;;14.58;52.00;95483.13;5017591;28;20218;-82
2022/11/08 10:01:22;;;;;;;5.38;1.77;;;;;;;14.88;50.63;95478.22;5012638;28;20238;-83
2022/11/08 10:03:53;;;;;;;2.60;2.00;;;;;;;15.14;49.99;95467.72;5012009;28;20219;-84
2022/11/08 10:06:49;;;;;;;3.58;1.75;;;;;;;15.46;47.37;95472.94;5011474;28;20191;-84
2022/11/08 10:09:31;;;;;;;3.78;1.90;;;;;;;15.69;46.50;95475.00;4994226;28;20231;-82
2022/11/08 10:12:11;;;;;;;2.88;1.10;;;;;;;15.74;43.68;95470.00;5046329;28;20236;-84
2022/11/08 10:14:52;;;;;;;1.13;1.02;;;;;;;15.79;43.22;95476.13;5049820;28;20216;-84
2022/11/08 10:17:39;;;;;;;1.30;1.20;;;;;;;15.86;42.68;95468.28;5050227;28;20202;-84
2022/11/08 10:20:15;;;;;;;1.98;1.13;;;;;;;15.77;43.11;95472.97;5050236;28;20225;-84
2022/11/08 10:22:50;;;;;;;1.45;1.20;;;;;;;15.70;43.86;95477.41;5038296;28;20201;-83
2022/11/08 10:25:24;;;;;;;2.25;1.20;;;;;;;15.63;44.28;95465.47;5033914;28;20198;-84
2022/11/08 10:27:52;;;;;;;2.55;1.30;;;;;;;15.53;44.28;95468.50;5033606;28;20684;-85
2022/11/08 10:30:21;;;;;;;2.88;1.17;;;;;;;15.43;45.49;95461.16;5033148;28;20226;-83
2022/11/08 10:32:53;;;;;;;1.63;1.38;;;;;;;15.36;45.16;95460.44;5033436;28;20226;-84
2022/11/08 10:35:26;;;;;;;1.90;1.45;;;;;;;15.33;45.10;95460.84;5032929;28;20197;-84
2022/11/08 10:37:57;;;;;;;2.15;1.60;;;;;;;15.26;46.25;95456.69;5029053;28;20194;-87
2022/11/08 10:40:37;;;;;;;1.73;1.30;;;;;;;15.28;45.66;95455.47;5013894;28;20756;-84
2022/11/08 10:43:09;;;;;;;2.05;1.40;;;;;;;15.27;45.49;95451.31;5014024;28;20179;-84
2022/11/08 10:45:36;;;;;;;3.08;1.48;;;;;;;15.28;46.53;95450.28;5014007;28;20203;-84
2022/11/08 10:48:04;;;;;;;3.60;1.73;;;;;;;15.32;46.81;95458.47;5013821;28;20214;-86
2022/11/08 10:50:40;;;;;;;1.40;1.30;;;;;;;15.33;47.76;95447.88;5014351;28;20729;-84
2022/11/08 10:53:15;;;;;;;3.22;1.50;;;;;;;15.37;48.03;95443.88;5022019;28;20227;-84
2022/11/08 10:55:47;;;;;;;2.80;1.38;;;;;;;15.42;48.18;95451.78;5033234;28;20202;-84
2022/11/08 10:58:33;;;;;;;2.47;1.40;;;;;;;15.42;45.88;95436.22;5028179;28;20190;-84
2022/11/08 11:01:02;;;;;;;1.50;1.25;;;;;;;15.50;47.01;95448.16;5034562;28;20194;-84
2022/11/08 11:03:30;;;;;;;1.95;1.42;;;;;;;15.62;47.50;95450.91;5033861;28;20219;-84
2022/11/08 11:06:00;;;;;;;3.22;1.48;;;;;;;15.68;48.36;95443.06;5033180;28;20206;-84
2022/11/08 11:08:27;;;;;;;2.80;1.73;;;;;;;15.76;49.49;95445.41;5013249;28;20196;-83
2022/11/08 11:10:54;;;;;;;4.90;1.98;;;;;;;15.88;49.95;95440.31;5013169;28;20195;-84
2022/11/08 11:13:23;;;;;;;7.97;2.78;;;;;;;16.03;51.44;95445.19;5013090;28;20220;-83
2022/11/08 11:15:51;;;;;;;4.57;2.40;;;;;;;16.21;51.81;95443.41;5013622;28;20199;-86
2022/11/08 11:18:24;;;;;;;3.67;2.20;;;;;;;16.40;51.82;95436.41;5019289;28;20657;-83
2022/11/08 11:21:17;;;;;;;3.75;2.15;;;;;;;16.55;52.49;95449.06;5015305;28;20206;-84
2022/11/08 11:23:46;;;;;;;3.92;2.20;;;;;;;16.69;51.02;95434.94;5011667;28;20205;-84
2022/11/08 11:26:29;;;;;;;5.30;2.03;;;;;;;16.85;51.57;95433.56;5015257;28;20214;-84
2022/11/08 11:29:05;;;;;;;4.68;2.50;;;;;;;16.79;50.36;95431.81;5013058;28;20234;-84
2022/11/08 11:31:33;;;;;;;10.07;2.60;;;;;;;16.75;50.55;95439.25;5025042;28;20190;-86
2022/11/08 11:34:20;;;;;;;3.92;1.90;;;;;;;16.95;50.95;95435.63;5031999;28;20596;-84
2022/11/08 11:36:55;;;;;;;4.60;2.53;;;;;;;17.12;50.67;95427.00;5033053;28;20206;-84
2022/11/08 11:39:26;;;;;;;9.15;2.90;;;;;;;17.18;48.59;95420.91;5020619;28;20238;-84
2022/11/08 11:41:59;;;;;;;5.03;2.15;;;;;;;17.24;47.77;95421.84;5013732;28;20206;-83
2022/11/08 11:44:29;;;;;;;6.32;2.50;;;;;;;17.14;47.42;95424.16;5012754;28;20659;-84
2022/11/08 11:47:03;;;;;;;2.42;1.95;;;;;;;17.15;46.67;95423.16;5012885;28;20214;-84
2022/11/08 11:49:31;;;;;;;2.78;1.67;;;;;;;17.21;46.68;95417.88;5025668;28;20768;-84
2022/11/08 11:51:59;;;;;;;3.15;2.10;;;;;;;17.35;47.20;95422.88;5027969;28;20202;-84
2022/11/08 11:54:29;;;;;;;2.75;1.80;;;;;;;17.45;46.91;95430.94;5032394;28;20221;-84
2022/11/08 11:57:00;;;;;;;5.28;1.98;;;;;;;17.58;46.79;95425.53;5032257;28;20198;-84
2022/11/08 11:59:48;;;;;;;4.57;1.73;;;;;;;17.49;45.59;95419.88;5030460;28;20222;-87
2022/11/08 12:02:37;;;;;;;3.13;1.90;;;;;;;17.67;46.63;95420.84;5011074;28;20302;-83
2022/11/08 12:05:19;;;;;;;3.33;2.00;;;;;;;17.85;45.54;95425.94;5022542;28;20201;-84
2022/11/08 12:07:58;;;;;;;4.22;2.13;;;;;;;17.95;45.38;95423.56;5029711;28;20202;-84